sensor_id;sensor_type;location;lat;lon;timestamp;P1;durP1;ratioP1;P2;durP2;ratioP2
83290;SDS011;73860;48.866;9.316;2024-03-08T00:00:32;23.10;;;13.70;;
83290;SDS011;73860;48.866;9.316;2024-03-08T00:03:02;26.90;;;13.90;;
83290;SDS011;73860;48.866;9.316;2024-03-08T00:05:31;21.10;;;13.20;;
83290;SDS011;73860;48.866;9.316;2024-03-08T00:08:00;23.40;;;12.70;;
83290;SDS011;73860;48.866;9.316;2024-03-08T00:10:30;22.80;;;14.30;;
83290;SDS011;73860;48.866;9.316;2024-03-08T00:12:59;21.90;;;13.30;;
83290;SDS011;73860;48.866;9.316;2024-03-08T00:15:30;22.50;;;14.00;;
83290;SDS011;73860;48.866;9.316;2024-03-08T00:17:59;23.10;;;13.60;;
83290;SDS011;73860;48.866;9.316;2024-03-08T00:20:28;21.10;;;12.40;;
83290;SDS011;73860;48.866;9.316;2024-03-08T00:22:58;24.60;;;14.00;;
83290;SDS011;73860;48.866;9.316;2024-03-08T00:25:27;23.80;;;13.00;;
83290;SDS011;73860;48.866;9.316;2024-03-08T00:27:56;21.50;;;13.10;;
83290;SDS011;73860;48.866;9.316;2024-03-08T00:30:26;22.00;;;13.70;;
83290;SDS011;73860;48.866;9.316;2024-03-08T00:32:55;23.40;;;12.90;;
83290;SDS011;73860;48.866;9.316;2024-03-08T00:35:24;22.00;;;12.60;;
83290;SDS011;73860;48.866;9.316;2024-03-08T00:37:53;21.70;;;13.10;;
83290;SDS011;73860;48.866;9.316;2024-03-08T00:40:23;22.90;;;13.30;;
83290;SDS011;73860;48.866;9.316;2024-03-08T00:42:53;23.40;;;13.20;;
83290;SDS011;73860;48.866;9.316;2024-03-08T00:45:22;23.00;;;14.40;;
83290;SDS011;73860;48.866;9.316;2024-03-08T00:47:51;25.10;;;13.90;;
83290;SDS011;73860;48.866;9.316;2024-03-08T00:50:20;25.30;;;13.60;;
83290;SDS011;73860;48.866;9.316;2024-03-08T00:52:49;23.30;;;13.60;;
83290;SDS011;73860;48.866;9.316;2024-03-08T00:55:18;21.70;;;13.50;;
83290;SDS011;73860;48.866;9.316;2024-03-08T00:57:48;23.40;;;13.30;;
83290;SDS011;73860;48.866;9.316;2024-03-08T01:00:18;22.80;;;12.60;;
83290;SDS011;73860;48.866;9.316;2024-03-08T01:02:48;24.10;;;13.70;;
83290;SDS011;73860;48.866;9.316;2024-03-08T01:05:17;25.30;;;13.20;;
83290;SDS011;73860;48.866;9.316;2024-03-08T01:07:46;23.10;;;13.00;;
83290;SDS011;73860;48.866;9.316;2024-03-08T01:10:16;20.70;;;12.20;;
83290;SDS011;73860;48.866;9.316;2024-03-08T01:12:45;24.90;;;14.00;;
83290;SDS011;73860;48.866;9.316;2024-03-08T01:15:14;23.30;;;14.00;;
83290;SDS011;73860;48.866;9.316;2024-03-08T01:17:43;22.10;;;12.70;;
83290;SDS011;73860;48.866;9.316;2024-03-08T01:20:13;24.90;;;13.70;;
83290;SDS011;73860;48.866;9.316;2024-03-08T01:22:42;20.60;;;12.40;;
83290;SDS011;73860;48.866;9.316;2024-03-08T01:25:11;22.40;;;12.10;;
83290;SDS011;73860;48.866;9.316;2024-03-08T01:27:40;21.90;;;13.60;;
83290;SDS011;73860;48.866;9.316;2024-03-08T01:30:10;25.40;;;14.60;;
83290;SDS011;73860;48.866;9.316;2024-03-08T01:32:39;25.60;;;14.00;;
83290;SDS011;73860;48.866;9.316;2024-03-08T01:35:09;24.20;;;13.70;;
83290;SDS011;73860;48.866;9.316;2024-03-08T01:37:39;24.30;;;14.10;;
83290;SDS011;73860;48.866;9.316;2024-03-08T01:40:09;24.30;;;13.60;;
83290;SDS011;73860;48.866;9.316;2024-03-08T01:42:39;20.00;;;11.80;;
83290;SDS011;73860;48.866;9.316;2024-03-08T01:45:09;22.30;;;13.30;;
83290;SDS011;73860;48.866;9.316;2024-03-08T01:47:38;23.30;;;12.90;;
83290;SDS011;73860;48.866;9.316;2024-03-08T01:50:08;22.50;;;13.00;;
83290;SDS011;73860;48.866;9.316;2024-03-08T01:52:38;21.00;;;11.60;;
83290;SDS011;73860;48.866;9.316;2024-03-08T01:55:07;21.40;;;12.30;;
83290;SDS011;73860;48.866;9.316;2024-03-08T01:57:37;23.30;;;12.60;;
83290;SDS011;73860;48.866;9.316;2024-03-08T02:00:07;19.50;;;12.20;;
83290;SDS011;73860;48.866;9.316;2024-03-08T02:02:38;25.40;;;14.10;;
83290;SDS011;73860;48.866;9.316;2024-03-08T02:05:09;19.90;;;11.90;;
83290;SDS011;73860;48.866;9.316;2024-03-08T02:07:38;20.20;;;11.10;;
83290;SDS011;73860;48.866;9.316;2024-03-08T02:10:10;19.80;;;11.60;;
83290;SDS011;73860;48.866;9.316;2024-03-08T02:12:40;20.60;;;12.90;;
83290;SDS011;73860;48.866;9.316;2024-03-08T02:15:09;24.90;;;14.10;;
83290;SDS011;73860;48.866;9.316;2024-03-08T02:17:38;22.70;;;12.30;;
83290;SDS011;73860;48.866;9.316;2024-03-08T02:20:08;23.40;;;12.60;;
83290;SDS011;73860;48.866;9.316;2024-03-08T02:22:39;18.70;;;11.50;;
83290;SDS011;73860;48.866;9.316;2024-03-08T02:25:09;21.50;;;11.00;;
83290;SDS011;73860;48.866;9.316;2024-03-08T02:27:38;21.30;;;12.60;;
83290;SDS011;73860;48.866;9.316;2024-03-08T02:30:08;20.70;;;11.60;;
83290;SDS011;73860;48.866;9.316;2024-03-08T02:32:40;19.90;;;11.20;;
83290;SDS011;73860;48.866;9.316;2024-03-08T02:35:09;21.10;;;11.30;;
83290;SDS011;73860;48.866;9.316;2024-03-08T02:37:39;21.00;;;11.80;;
83290;SDS011;73860;48.866;9.316;2024-03-08T02:40:09;20.30;;;11.60;;
83290;SDS011;73860;48.866;9.316;2024-03-08T02:42:39;23.30;;;12.40;;
83290;SDS011;73860;48.866;9.316;2024-03-08T02:45:09;18.90;;;11.10;;
83290;SDS011;73860;48.866;9.316;2024-03-08T02:47:38;20.20;;;10.80;;
83290;SDS011;73860;48.866;9.316;2024-03-08T02:50:08;21.20;;;11.90;;
83290;SDS011;73860;48.866;9.316;2024-03-08T02:52:38;21.30;;;12.00;;
83290;SDS011;73860;48.866;9.316;2024-03-08T02:55:08;20.50;;;12.10;;
83290;SDS011;73860;48.866;9.316;2024-03-08T02:57:41;20.30;;;11.70;;
83290;SDS011;73860;48.866;9.316;2024-03-08T03:00:14;20.40;;;11.80;;
83290;SDS011;73860;48.866;9.316;2024-03-08T03:02:45;19.70;;;11.40;;
83290;SDS011;73860;48.866;9.316;2024-03-08T03:05:14;20.50;;;11.40;;
83290;SDS011;73860;48.866;9.316;2024-03-08T03:07:44;21.00;;;11.50;;
83290;SDS011;73860;48.866;9.316;2024-03-08T03:10:14;18.40;;;10.30;;
83290;SDS011;73860;48.866;9.316;2024-03-08T03:12:44;20.10;;;11.70;;
83290;SDS011;73860;48.866;9.316;2024-03-08T03:15:15;22.40;;;12.30;;
83290;SDS011;73860;48.866;9.316;2024-03-08T03:17:46;22.60;;;12.70;;
83290;SDS011;73860;48.866;9.316;2024-03-08T03:20:17;19.70;;;12.10;;
83290;SDS011;73860;48.866;9.316;2024-03-08T03:22:52;23.20;;;12.40;;
83290;SDS011;73860;48.866;9.316;2024-03-08T03:25:23;22.00;;;12.30;;
83290;SDS011;73860;48.866;9.316;2024-03-08T03:27:55;18.90;;;11.40;;
83290;SDS011;73860;48.866;9.316;2024-03-08T03:30:24;18.80;;;10.70;;
83290;SDS011;73860;48.866;9.316;2024-03-08T03:32:57;19.30;;;11.30;;
83290;SDS011;73860;48.866;9.316;2024-03-08T03:35:26;25.80;;;14.90;;
83290;SDS011;73860;48.866;9.316;2024-03-08T03:37:56;21.50;;;12.90;;
83290;SDS011;73860;48.866;9.316;2024-03-08T03:40:29;21.10;;;12.30;;
83290;SDS011;73860;48.866;9.316;2024-03-08T03:42:58;22.10;;;11.40;;
83290;SDS011;73860;48.866;9.316;2024-03-08T03:45:29;18.70;;;12.00;;
83290;SDS011;73860;48.866;9.316;2024-03-08T03:48:01;20.60;;;12.00;;
83290;SDS011;73860;48.866;9.316;2024-03-08T03:50:32;17.60;;;10.70;;
83290;SDS011;73860;48.866;9.316;2024-03-08T03:53:02;19.90;;;11.10;;
83290;SDS011;73860;48.866;9.316;2024-03-08T03:55:34;20.30;;;11.00;;
83290;SDS011;73860;48.866;9.316;2024-03-08T03:58:05;19.50;;;11.80;;
83290;SDS011;73860;48.866;9.316;2024-03-08T04:00:34;22.00;;;11.40;;
83290;SDS011;73860;48.866;9.316;2024-03-08T04:03:03;18.10;;;11.30;;
83290;SDS011;73860;48.866;9.316;2024-03-08T04:05:33;22.60;;;11.70;;
83290;SDS011;73860;48.866;9.316;2024-03-08T04:08:03;20.50;;;11.00;;
83290;SDS011;73860;48.866;9.316;2024-03-08T04:10:32;19.90;;;12.90;;
83290;SDS011;73860;48.866;9.316;2024-03-08T04:13:01;19.90;;;10.90;;
83290;SDS011;73860;48.866;9.316;2024-03-08T04:15:31;19.30;;;10.60;;
83290;SDS011;73860;48.866;9.316;2024-03-08T04:18:00;23.50;;;13.00;;
83290;SDS011;73860;48.866;9.316;2024-03-08T04:20:29;24.20;;;12.40;;
83290;SDS011;73860;48.866;9.316;2024-03-08T04:22:58;22.60;;;11.80;;
83290;SDS011;73860;48.866;9.316;2024-03-08T04:25:28;21.90;;;12.20;;
83290;SDS011;73860;48.866;9.316;2024-03-08T04:27:57;17.80;;;10.60;;
83290;SDS011;73860;48.866;9.316;2024-03-08T04:30:26;21.10;;;10.40;;
83290;SDS011;73860;48.866;9.316;2024-03-08T04:32:56;19.80;;;11.30;;
83290;SDS011;73860;48.866;9.316;2024-03-08T04:35:26;20.20;;;11.00;;
83290;SDS011;73860;48.866;9.316;2024-03-08T04:37:55;19.40;;;10.30;;
83290;SDS011;73860;48.866;9.316;2024-03-08T04:40:24;18.60;;;11.10;;
83290;SDS011;73860;48.866;9.316;2024-03-08T04:42:54;20.60;;;11.80;;
83290;SDS011;73860;48.866;9.316;2024-03-08T04:45:23;19.10;;;11.20;;
83290;SDS011;73860;48.866;9.316;2024-03-08T04:47:53;18.10;;;10.90;;
83290;SDS011;73860;48.866;9.316;2024-03-08T04:50:23;19.60;;;11.40;;
83290;SDS011;73860;48.866;9.316;2024-03-08T04:52:55;18.00;;;11.30;;
83290;SDS011;73860;48.866;9.316;2024-03-08T04:55:24;21.10;;;11.70;;
83290;SDS011;73860;48.866;9.316;2024-03-08T04:57:53;20.70;;;10.90;;
83290;SDS011;73860;48.866;9.316;2024-03-08T05:00:22;22.10;;;12.40;;
83290;SDS011;73860;48.866;9.316;2024-03-08T05:02:52;23.20;;;13.00;;
83290;SDS011;73860;48.866;9.316;2024-03-08T05:05:21;21.20;;;11.30;;
83290;SDS011;73860;48.866;9.316;2024-03-08T05:07:51;21.40;;;12.30;;
83290;SDS011;73860;48.866;9.316;2024-03-08T05:10:20;21.60;;;11.60;;
83290;SDS011;73860;48.866;9.316;2024-03-08T05:12:49;19.00;;;11.30;;
83290;SDS011;73860;48.866;9.316;2024-03-08T05:15:19;21.50;;;12.30;;
83290;SDS011;73860;48.866;9.316;2024-03-08T05:17:48;20.30;;;11.20;;
83290;SDS011;73860;48.866;9.316;2024-03-08T05:20:17;21.60;;;11.80;;
83290;SDS011;73860;48.866;9.316;2024-03-08T05:22:48;21.50;;;12.50;;
83290;SDS011;73860;48.866;9.316;2024-03-08T05:25:18;24.20;;;14.30;;
83290;SDS011;73860;48.866;9.316;2024-03-08T05:27:47;31.10;;;20.80;;
83290;SDS011;73860;48.866;9.316;2024-03-08T05:30:16;26.60;;;16.90;;
83290;SDS011;73860;48.866;9.316;2024-03-08T05:32:48;23.90;;;14.10;;
83290;SDS011;73860;48.866;9.316;2024-03-08T05:35:17;21.40;;;11.60;;
83290;SDS011;73860;48.866;9.316;2024-03-08T05:37:47;22.90;;;12.30;;
83290;SDS011;73860;48.866;9.316;2024-03-08T05:40:16;28.00;;;15.10;;
83290;SDS011;73860;48.866;9.316;2024-03-08T05:42:45;27.40;;;14.70;;
83290;SDS011;73860;48.866;9.316;2024-03-08T05:45:14;26.20;;;15.80;;
83290;SDS011;73860;48.866;9.316;2024-03-08T05:47:44;20.20;;;12.50;;
83290;SDS011;73860;48.866;9.316;2024-03-08T05:50:14;21.60;;;12.00;;
83290;SDS011;73860;48.866;9.316;2024-03-08T05:52:43;22.50;;;12.30;;
83290;SDS011;73860;48.866;9.316;2024-03-08T05:55:13;20.80;;;12.20;;
83290;SDS011;73860;48.866;9.316;2024-03-08T05:57:43;21.70;;;12.90;;
83290;SDS011;73860;48.866;9.316;2024-03-08T06:00:13;20.00;;;12.10;;
83290;SDS011;73860;48.866;9.316;2024-03-08T06:02:43;22.40;;;13.10;;
83290;SDS011;73860;48.866;9.316;2024-03-08T06:05:12;22.30;;;12.70;;
83290;SDS011;73860;48.866;9.316;2024-03-08T06:07:41;22.80;;;12.70;;
83290;SDS011;73860;48.866;9.316;2024-03-08T06:10:11;22.40;;;13.20;;
83290;SDS011;73860;48.866;9.316;2024-03-08T06:12:41;19.50;;;12.10;;
83290;SDS011;73860;48.866;9.316;2024-03-08T06:15:10;21.80;;;13.60;;
83290;SDS011;73860;48.866;9.316;2024-03-08T06:17:41;22.60;;;12.90;;
83290;SDS011;73860;48.866;9.316;2024-03-08T06:20:11;22.80;;;12.50;;
83290;SDS011;73860;48.866;9.316;2024-03-08T06:22:40;28.50;;;15.50;;
83290;SDS011;73860;48.866;9.316;2024-03-08T06:25:11;26.10;;;15.40;;
83290;SDS011;73860;48.866;9.316;2024-03-08T06:27:41;21.50;;;12.70;;
83290;SDS011;73860;48.866;9.316;2024-03-08T06:30:13;23.00;;;13.70;;
83290;SDS011;73860;48.866;9.316;2024-03-08T06:32:42;19.20;;;11.80;;
83290;SDS011;73860;48.866;9.316;2024-03-08T06:35:12;20.70;;;12.00;;
83290;SDS011;73860;48.866;9.316;2024-03-08T06:37:42;23.80;;;15.10;;
83290;SDS011;73860;48.866;9.316;2024-03-08T06:40:12;24.60;;;14.10;;
83290;SDS011;73860;48.866;9.316;2024-03-08T06:42:41;24.50;;;14.10;;
83290;SDS011;73860;48.866;9.316;2024-03-08T06:45:11;22.50;;;13.50;;
83290;SDS011;73860;48.866;9.316;2024-03-08T06:47:45;25.30;;;13.20;;
83290;SDS011;73860;48.866;9.316;2024-03-08T06:50:14;23.00;;;12.20;;
83290;SDS011;73860;48.866;9.316;2024-03-08T06:52:44;20.50;;;13.50;;
83290;SDS011;73860;48.866;9.316;2024-03-08T06:55:17;23.10;;;13.60;;
83290;SDS011;73860;48.866;9.316;2024-03-08T06:57:47;21.30;;;13.10;;
83290;SDS011;73860;48.866;9.316;2024-03-08T07:00:17;21.50;;;12.80;;
83290;SDS011;73860;48.866;9.316;2024-03-08T07:02:47;25.20;;;14.00;;
83290;SDS011;73860;48.866;9.316;2024-03-08T07:05:16;25.50;;;15.40;;
83290;SDS011;73860;48.866;9.316;2024-03-08T07:07:45;24.70;;;15.10;;
83290;SDS011;73860;48.866;9.316;2024-03-08T07:10:15;23.70;;;13.10;;
83290;SDS011;73860;48.866;9.316;2024-03-08T07:12:45;21.90;;;13.50;;
83290;SDS011;73860;48.866;9.316;2024-03-08T07:15:15;23.70;;;13.20;;
83290;SDS011;73860;48.866;9.316;2024-03-08T07:17:45;24.30;;;14.10;;
83290;SDS011;73860;48.866;9.316;2024-03-08T07:20:15;21.50;;;13.60;;
83290;SDS011;73860;48.866;9.316;2024-03-08T07:22:45;22.80;;;14.60;;
83290;SDS011;73860;48.866;9.316;2024-03-08T07:25:17;21.00;;;13.10;;
83290;SDS011;73860;48.866;9.316;2024-03-08T07:27:50;23.50;;;14.10;;
83290;SDS011;73860;48.866;9.316;2024-03-08T07:33:46;21.30;;;13.00;;
83290;SDS011;73860;48.866;9.316;2024-03-08T07:36:16;22.30;;;13.40;;
83290;SDS011;73860;48.866;9.316;2024-03-08T07:38:46;20.90;;;13.10;;
83290;SDS011;73860;48.866;9.316;2024-03-08T07:41:16;22.40;;;13.40;;
83290;SDS011;73860;48.866;9.316;2024-03-08T07:43:46;23.90;;;13.20;;
83290;SDS011;73860;48.866;9.316;2024-03-08T07:46:15;21.90;;;12.80;;
83290;SDS011;73860;48.866;9.316;2024-03-08T07:48:45;21.90;;;13.00;;
83290;SDS011;73860;48.866;9.316;2024-03-08T07:51:16;22.60;;;13.20;;
83290;SDS011;73860;48.866;9.316;2024-03-08T07:53:46;20.20;;;12.80;;
83290;SDS011;73860;48.866;9.316;2024-03-08T07:56:15;21.10;;;13.20;;
83290;SDS011;73860;48.866;9.316;2024-03-08T07:58:45;21.40;;;13.10;;
83290;SDS011;73860;48.866;9.316;2024-03-08T08:01:17;21.30;;;13.90;;
83290;SDS011;73860;48.866;9.316;2024-03-08T08:03:46;20.30;;;14.00;;
83290;SDS011;73860;48.866;9.316;2024-03-08T08:06:16;21.50;;;12.60;;
83290;SDS011;73860;48.866;9.316;2024-03-08T08:08:46;22.50;;;13.20;;
83290;SDS011;73860;48.866;9.316;2024-03-08T08:11:16;23.40;;;13.80;;
83290;SDS011;73860;48.866;9.316;2024-03-08T08:13:46;22.70;;;14.20;;
83290;SDS011;73860;48.866;9.316;2024-03-08T08:16:15;23.10;;;14.00;;
83290;SDS011;73860;48.866;9.316;2024-03-08T08:18:45;24.60;;;14.00;;
83290;SDS011;73860;48.866;9.316;2024-03-08T08:21:15;18.60;;;10.70;;
83290;SDS011;73860;48.866;9.316;2024-03-08T08:23:44;20.10;;;12.20;;
83290;SDS011;73860;48.866;9.316;2024-03-08T08:26:14;20.60;;;13.50;;
83290;SDS011;73860;48.866;9.316;2024-03-08T08:28:43;22.20;;;13.80;;
83290;SDS011;73860;48.866;9.316;2024-03-08T08:31:13;21.30;;;14.00;;
83290;SDS011;73860;48.866;9.316;2024-03-08T08:33:42;21.00;;;12.70;;
83290;SDS011;73860;48.866;9.316;2024-03-08T08:36:11;23.10;;;13.60;;
83290;SDS011;73860;48.866;9.316;2024-03-08T08:38:40;20.80;;;13.30;;
83290;SDS011;73860;48.866;9.316;2024-03-08T08:41:10;18.30;;;11.80;;
83290;SDS011;73860;48.866;9.316;2024-03-08T08:43:40;21.10;;;11.50;;
83290;SDS011;73860;48.866;9.316;2024-03-08T08:46:10;22.20;;;13.30;;
83290;SDS011;73860;48.866;9.316;2024-03-08T08:48:40;23.40;;;13.30;;
83290;SDS011;73860;48.866;9.316;2024-03-08T08:51:11;20.00;;;12.30;;
83290;SDS011;73860;48.866;9.316;2024-03-08T08:53:42;19.10;;;12.30;;
83290;SDS011;73860;48.866;9.316;2024-03-08T08:56:13;20.40;;;12.00;;
83290;SDS011;73860;48.866;9.316;2024-03-08T08:58:43;22.60;;;12.30;;
83290;SDS011;73860;48.866;9.316;2024-03-08T09:01:13;17.40;;;10.50;;
83290;SDS011;73860;48.866;9.316;2024-03-08T09:03:45;19.00;;;11.40;;
83290;SDS011;73860;48.866;9.316;2024-03-08T09:06:14;21.90;;;12.90;;
83290;SDS011;73860;48.866;9.316;2024-03-08T09:08:43;20.20;;;11.70;;
83290;SDS011;73860;48.866;9.316;2024-03-08T09:11:12;21.20;;;12.40;;
83290;SDS011;73860;48.866;9.316;2024-03-08T09:13:43;18.90;;;11.40;;
83290;SDS011;73860;48.866;9.316;2024-03-08T09:16:13;20.40;;;11.90;;
83290;SDS011;73860;48.866;9.316;2024-03-08T09:18:42;19.50;;;11.80;;
83290;SDS011;73860;48.866;9.316;2024-03-08T09:21:12;21.00;;;12.90;;
83290;SDS011;73860;48.866;9.316;2024-03-08T09:23:41;17.70;;;11.50;;
83290;SDS011;73860;48.866;9.316;2024-03-08T09:26:11;18.60;;;11.20;;
83290;SDS011;73860;48.866;9.316;2024-03-08T09:28:41;21.70;;;12.10;;
83290;SDS011;73860;48.866;9.316;2024-03-08T09:31:11;21.10;;;12.50;;
83290;SDS011;73860;48.866;9.316;2024-03-08T09:33:41;18.40;;;10.80;;
83290;SDS011;73860;48.866;9.316;2024-03-08T09:36:10;17.80;;;11.50;;
83290;SDS011;73860;48.866;9.316;2024-03-08T09:38:40;20.20;;;12.70;;
83290;SDS011;73860;48.866;9.316;2024-03-08T09:41:09;21.10;;;12.90;;
83290;SDS011;73860;48.866;9.316;2024-03-08T09:43:39;20.90;;;12.50;;
83290;SDS011;73860;48.866;9.316;2024-03-08T09:46:08;17.80;;;11.00;;
83290;SDS011;73860;48.866;9.316;2024-03-08T09:48:38;21.30;;;12.20;;
83290;SDS011;73860;48.866;9.316;2024-03-08T09:51:08;19.80;;;12.60;;
83290;SDS011;73860;48.866;9.316;2024-03-08T09:53:40;17.70;;;11.80;;
83290;SDS011;73860;48.866;9.316;2024-03-08T09:56:10;21.00;;;13.00;;
83290;SDS011;73860;48.866;9.316;2024-03-08T09:58:39;19.70;;;11.90;;
83290;SDS011;73860;48.866;9.316;2024-03-08T10:01:32;20.80;;;12.10;;
83290;SDS011;73860;48.866;9.316;2024-03-08T10:04:01;19.80;;;12.70;;
83290;SDS011;73860;48.866;9.316;2024-03-08T10:06:31;18.50;;;12.90;;
83290;SDS011;73860;48.866;9.316;2024-03-08T10:09:00;20.00;;;12.00;;
83290;SDS011;73860;48.866;9.316;2024-03-08T10:11:32;18.20;;;10.70;;
83290;SDS011;73860;48.866;9.316;2024-03-08T10:14:02;20.80;;;12.00;;
83290;SDS011;73860;48.866;9.316;2024-03-08T10:16:32;19.60;;;11.60;;
83290;SDS011;73860;48.866;9.316;2024-03-08T10:19:02;20.50;;;12.90;;
83290;SDS011;73860;48.866;9.316;2024-03-08T10:21:32;21.10;;;12.20;;
83290;SDS011;73860;48.866;9.316;2024-03-08T10:24:03;19.70;;;11.60;;
83290;SDS011;73860;48.866;9.316;2024-03-08T10:26:33;20.20;;;12.00;;
83290;SDS011;73860;48.866;9.316;2024-03-08T10:29:02;19.90;;;11.50;;
83290;SDS011;73860;48.866;9.316;2024-03-08T10:31:34;20.10;;;12.00;;
83290;SDS011;73860;48.866;9.316;2024-03-08T10:34:03;18.30;;;11.90;;
83290;SDS011;73860;48.866;9.316;2024-03-08T10:36:32;18.10;;;11.80;;
83290;SDS011;73860;48.866;9.316;2024-03-08T10:39:04;19.50;;;12.10;;
83290;SDS011;73860;48.866;9.316;2024-03-08T10:41:38;18.40;;;11.40;;
83290;SDS011;73860;48.866;9.316;2024-03-08T10:44:14;17.70;;;11.60;;
83290;SDS011;73860;48.866;9.316;2024-03-08T10:46:50;18.80;;;11.50;;
83290;SDS011;73860;48.866;9.316;2024-03-08T10:49:32;20.60;;;11.80;;
83290;SDS011;73860;48.866;9.316;2024-03-08T10:52:05;19.90;;;12.70;;
83290;SDS011;73860;48.866;9.316;2024-03-08T10:54:36;17.80;;;11.00;;
83290;SDS011;73860;48.866;9.316;2024-03-08T10:57:06;18.20;;;12.30;;
83290;SDS011;73860;48.866;9.316;2024-03-08T10:59:37;18.20;;;11.50;;
83290;SDS011;73860;48.866;9.316;2024-03-08T11:02:07;18.80;;;11.50;;
83290;SDS011;73860;48.866;9.316;2024-03-08T11:04:38;17.70;;;11.50;;
83290;SDS011;73860;48.866;9.316;2024-03-08T11:07:09;21.20;;;12.90;;
83290;SDS011;73860;48.866;9.316;2024-03-08T11:09:43;19.30;;;12.70;;
83290;SDS011;73860;48.866;9.316;2024-03-08T11:12:20;20.10;;;12.10;;
83290;SDS011;73860;48.866;9.316;2024-03-08T11:14:55;19.20;;;11.70;;
83290;SDS011;73860;48.866;9.316;2024-03-08T11:17:39;19.20;;;12.50;;
83290;SDS011;73860;48.866;9.316;2024-03-08T11:20:12;19.00;;;12.60;;
83290;SDS011;73860;48.866;9.316;2024-03-08T11:22:47;18.90;;;11.90;;
83290;SDS011;73860;48.866;9.316;2024-03-08T11:25:37;19.50;;;12.30;;
83290;SDS011;73860;48.866;9.316;2024-03-08T11:28:16;18.50;;;11.90;;
83290;SDS011;73860;48.866;9.316;2024-03-08T11:33:54;18.70;;;11.70;;
83290;SDS011;73860;48.866;9.316;2024-03-08T11:36:24;19.30;;;12.00;;
83290;SDS011;73860;48.866;9.316;2024-03-08T11:38:54;18.50;;;11.80;;
83290;SDS011;73860;48.866;9.316;2024-03-08T11:41:35;18.10;;;12.00;;
83290;SDS011;73860;48.866;9.316;2024-03-08T11:44:05;18.20;;;11.40;;
83290;SDS011;73860;48.866;9.316;2024-03-08T11:46:37;18.00;;;11.10;;
83290;SDS011;73860;48.866;9.316;2024-03-08T11:49:12;19.10;;;12.40;;
83290;SDS011;73860;48.866;9.316;2024-03-08T11:51:42;19.10;;;11.60;;
83290;SDS011;73860;48.866;9.316;2024-03-08T11:54:12;17.90;;;12.10;;
83290;SDS011;73860;48.866;9.316;2024-03-08T11:56:42;16.50;;;10.90;;
83290;SDS011;73860;48.866;9.316;2024-03-08T11:59:13;17.40;;;11.90;;
83290;SDS011;73860;48.866;9.316;2024-03-08T12:01:44;15.70;;;10.70;;
83290;SDS011;73860;48.866;9.316;2024-03-08T12:04:29;17.50;;;11.70;;
83290;SDS011;73860;48.866;9.316;2024-03-08T12:07:00;15.10;;;10.40;;
83290;SDS011;73860;48.866;9.316;2024-03-08T12:09:35;15.70;;;10.90;;
83290;SDS011;73860;48.866;9.316;2024-03-08T12:12:05;17.20;;;11.10;;
83290;SDS011;73860;48.866;9.316;2024-03-08T12:14:35;17.60;;;11.20;;
83290;SDS011;73860;48.866;9.316;2024-03-08T12:17:05;16.50;;;11.30;;
83290;SDS011;73860;48.866;9.316;2024-03-08T12:19:36;16.40;;;11.40;;
83290;SDS011;73860;48.866;9.316;2024-03-08T12:22:09;16.30;;;11.20;;
83290;SDS011;73860;48.866;9.316;2024-03-08T12:24:39;16.70;;;11.20;;
83290;SDS011;73860;48.866;9.316;2024-03-08T12:27:19;15.60;;;10.90;;
83290;SDS011;73860;48.866;9.316;2024-03-08T12:29:48;17.20;;;11.10;;
83290;SDS011;73860;48.866;9.316;2024-03-08T12:32:19;16.60;;;11.00;;
83290;SDS011;73860;48.866;9.316;2024-03-08T12:34:52;16.10;;;11.30;;
83290;SDS011;73860;48.866;9.316;2024-03-08T12:39:49;16.20;;;10.80;;
83290;SDS011;73860;48.866;9.316;2024-03-08T12:42:19;15.50;;;10.40;;
83290;SDS011;73860;48.866;9.316;2024-03-08T12:44:49;15.70;;;10.50;;
83290;SDS011;73860;48.866;9.316;2024-03-08T12:47:18;15.90;;;10.70;;
83290;SDS011;73860;48.866;9.316;2024-03-08T12:49:48;15.50;;;10.70;;
83290;SDS011;73860;48.866;9.316;2024-03-08T12:52:18;15.90;;;11.10;;
83290;SDS011;73860;48.866;9.316;2024-03-08T12:54:47;15.60;;;11.10;;
83290;SDS011;73860;48.866;9.316;2024-03-08T12:57:16;16.50;;;10.80;;
83290;SDS011;73860;48.866;9.316;2024-03-08T12:59:46;15.20;;;10.70;;
83290;SDS011;73860;48.866;9.316;2024-03-08T13:02:16;15.30;;;10.00;;
83290;SDS011;73860;48.866;9.316;2024-03-08T13:04:45;15.60;;;10.60;;
83290;SDS011;73860;48.866;9.316;2024-03-08T13:07:22;15.10;;;10.80;;
83290;SDS011;73860;48.866;9.316;2024-03-08T13:09:52;16.70;;;11.40;;
83290;SDS011;73860;48.866;9.316;2024-03-08T13:12:22;16.00;;;10.80;;
83290;SDS011;73860;48.866;9.316;2024-03-08T13:14:51;17.00;;;11.60;;
83290;SDS011;73860;48.866;9.316;2024-03-08T13:17:23;14.70;;;10.70;;
83290;SDS011;73860;48.866;9.316;2024-03-08T13:19:52;15.40;;;10.30;;
83290;SDS011;73860;48.866;9.316;2024-03-08T13:24:52;15.00;;;10.60;;
83290;SDS011;73860;48.866;9.316;2024-03-08T13:27:22;14.20;;;10.00;;
83290;SDS011;73860;48.866;9.316;2024-03-08T13:29:51;15.20;;;10.30;;
83290;SDS011;73860;48.866;9.316;2024-03-08T13:32:20;14.30;;;9.40;;
83290;SDS011;73860;48.866;9.316;2024-03-08T13:34:50;15.20;;;10.30;;
83290;SDS011;73860;48.866;9.316;2024-03-08T13:37:20;14.90;;;10.30;;
83290;SDS011;73860;48.866;9.316;2024-03-08T13:39:49;13.20;;;9.50;;
83290;SDS011;73860;48.866;9.316;2024-03-08T13:42:19;14.70;;;9.70;;
83290;SDS011;73860;48.866;9.316;2024-03-08T13:44:49;15.90;;;10.00;;
83290;SDS011;73860;48.866;9.316;2024-03-08T13:47:18;14.90;;;10.00;;
83290;SDS011;73860;48.866;9.316;2024-03-08T13:49:47;15.30;;;11.20;;
83290;SDS011;73860;48.866;9.316;2024-03-08T13:52:17;14.90;;;10.10;;
83290;SDS011;73860;48.866;9.316;2024-03-08T13:54:46;16.20;;;11.00;;
83290;SDS011;73860;48.866;9.316;2024-03-08T13:57:16;15.00;;;10.00;;
83290;SDS011;73860;48.866;9.316;2024-03-08T13:59:45;15.00;;;10.60;;
83290;SDS011;73860;48.866;9.316;2024-03-08T14:02:15;13.90;;;9.60;;
83290;SDS011;73860;48.866;9.316;2024-03-08T14:04:45;14.40;;;9.80;;
83290;SDS011;73860;48.866;9.316;2024-03-08T14:07:15;14.10;;;10.00;;
83290;SDS011;73860;48.866;9.316;2024-03-08T14:09:44;13.30;;;9.60;;
83290;SDS011;73860;48.866;9.316;2024-03-08T14:12:13;14.10;;;9.70;;
83290;SDS011;73860;48.866;9.316;2024-03-08T14:14:42;15.70;;;10.20;;
83290;SDS011;73860;48.866;9.316;2024-03-08T14:17:12;15.70;;;9.90;;
83290;SDS011;73860;48.866;9.316;2024-03-08T14:19:43;14.40;;;10.20;;
83290;SDS011;73860;48.866;9.316;2024-03-08T14:22:12;14.00;;;10.00;;
83290;SDS011;73860;48.866;9.316;2024-03-08T14:24:42;13.90;;;9.50;;
83290;SDS011;73860;48.866;9.316;2024-03-08T14:27:11;13.30;;;9.00;;
83290;SDS011;73860;48.866;9.316;2024-03-08T14:29:41;14.00;;;9.50;;
83290;SDS011;73860;48.866;9.316;2024-03-08T14:32:10;14.10;;;9.50;;
83290;SDS011;73860;48.866;9.316;2024-03-08T14:34:40;16.30;;;9.60;;
83290;SDS011;73860;48.866;9.316;2024-03-08T14:37:10;14.10;;;9.70;;
83290;SDS011;73860;48.866;9.316;2024-03-08T14:39:40;13.30;;;9.00;;
83290;SDS011;73860;48.866;9.316;2024-03-08T14:42:09;14.10;;;9.70;;
83290;SDS011;73860;48.866;9.316;2024-03-08T14:44:41;13.30;;;9.20;;
83290;SDS011;73860;48.866;9.316;2024-03-08T14:47:14;13.10;;;9.60;;
83290;SDS011;73860;48.866;9.316;2024-03-08T14:49:43;12.70;;;9.20;;
83290;SDS011;73860;48.866;9.316;2024-03-08T14:52:15;12.90;;;9.00;;